• Join FlightAware (Why Join?)
  • Login
  • US Flag 
 
10:13AM EST


 

Airport Tracker/Info


-or-


 

Live Flight TrackerFlight Track Log ✈ SWA1787 ✈ 08-Jun-2013 ✈ KTPA - KFLL

Flight Track Log - Related Links

Times and Time Zones

All times are in EDT time to prevent confusion due to time zone crossing. See the SWA1787 flight status page for this flight to view local times or setup timezone preferences in your user account.

Time Position Orientation Groundspeed Altitude Reporting Facility
EDT Latitude Longitude Course Direction KTS MPH feet Rate Location/Type
08:18PM 27.9000 -82.5667 192° South 227 261 3,400  Level Tampa TRACON
08:20PM 27.7750 -82.5989 193° South 262 302 9,300 3,300 Climbing Miami Center
08:21PM 27.6911 -82.6086 186° South 289 333 12,700 3,780 Climbing Miami Center
08:22PM 27.6278 -82.6806 225° Southwest 302 348 16,900 3,720 Climbing Miami Center
08:23PM 27.5783 -82.7669 237° Southwest 313 360 20,200 3,240 Climbing Miami Center
08:24PM 27.5264 -82.8650 239° Southwest 336 387 23,400 2,400 Climbing Miami Center
08:25PM 27.4569 -82.9267 218° Southwest 341 392 25,000 780 Climbing Miami Center
08:26PM 27.3717 -82.9714 205° Southwest 341 392 25,000  Level Miami Center
08:27PM 27.2761 -82.9569 172° South 322 371 25,000  Level Miami Center
08:28PM 27.2050 -82.8622 130° Southeast 316 364 25,000  Level Miami Center
08:29PM 27.1408 -82.7492 123° Southeast 363 418 25,000  Level Miami Center
08:30PM 27.0786 -82.6389 122° Southeast 396 456 25,000  Level Miami Center
08:31PM 27.0083 -82.5142 122° Southeast 421 484 25,000  Level Miami Center
08:32PM 26.9497 -82.4136 123° Southeast 433 498 25,000  Level Miami Center
08:33PM 26.8831 -82.2986 123° Southeast 433 498 25,000  Level Miami Center
08:34PM 26.8203 -82.1886 123° Southeast 433 498 25,000  Level Miami Center
08:35PM 26.7556 -82.0767 123° Southeast 433 498 25,000  Level Miami Center
08:36PM 26.6864 -81.9642 125° Southeast 432 497 25,000  Level Miami Center
08:37PM 26.6217 -81.8500 122° Southeast 438 504 25,000 -360 Level Miami Center
08:38PM 26.5522 -81.7378 125° Southeast 438 504 24,300 -1,620 Descending Miami Center
08:39PM 26.4972 -81.6336 121° Southeast 432 497 21,800 -2,700 Descending Miami Center
08:40PM 26.4239 -81.5100 124° Southeast 421 484 19,000 -2,640 Descending Miami Center
08:41PM 26.3667 -81.4058 121° Southeast 409 471 16,600 -2,400 Descending Miami Center
08:42PM 26.3069 -81.3108 125° Southeast 396 456 14,200 -2,400 Descending Miami Center
08:42PM 26.2572 -81.2325 125° Southeast 365 420 12,300 -2,280 Descending Miami Center
08:43PM 26.2153 -81.1639 124° Southeast 351 404 10,600 -1,740 Descending Miami Center
08:44PM 26.1997 -81.1264 115° Southeast 363 418 10,300 -600 Descending Miami Center
08:44PM 26.1636 -81.0764 129° Southeast 297 342 10,000 -840 Descending Miami Center
08:45PM 26.1539 -81.0506 113° Southeast 327 376 9,500 -1,500 Descending Miami Center
08:45PM 26.1219 -81.0056 128° Southeast 270 311 8,500 -1,500 Descending Miami Center
08:46PM 26.1122 -80.9775 111° Southeast 296 341 8,000 -540 Descending Miami Center
08:46PM 26.1011 -80.9261 104° East 267 307 8,000 -120 Level Miami Center
08:47PM 26.0978 -80.8983 98° East 259 298 7,900  Descending Miami Center
08:47PM 26.0822 -80.8561 112° Southeast 257 296 8,000 -120 Climbing Miami Center
08:48PM 26.0789 -80.8258 97° East 252 290 7,800 -720 Descending Miami Center
08:48PM 26.0756 -80.7867 95° East 219 252 7,300 -900 Descending Miami Center
08:49PM 26.0806 -80.7544 80° East 236 272 6,900 -300 Descending Miami Center
08:49PM 26.0775 -80.7172 95° East 217 250 7,000 -300 Climbing Miami Center
08:50PM 26.0803 -80.6919 83° East 223 257 6,600 -1,020 Descending Miami Center
08:50PM 26.0769 -80.6594 97° East 204 235 6,100 -1,020 Descending Miami Center
08:51PM 26.0797 -80.6294 84° East 211 243 5,600 -1,020 Descending Miami Center
08:51PM 26.0783 -80.6017 93° East 192 221 5,100 -720 Descending Miami Center
08:52PM 26.0814 -80.5717 84° East 199 229 4,900 -120 Descending Miami Center
08:52PM 26.0758 -80.5436 102° East 187 215 5,000 60 Climbing Miami Center
08:53PM 26.0772 -80.4814 89° East 186 214 5,000 -480 Level Miami Center
08:54PM 26.0747 -80.4164 92° East 190 219 4,100 -900 Descending Miami Center
08:55PM 26.0761 -80.3611 88° East 176 203 3,200 -960 Descending Miami Center
08:56PM 26.0775 -80.3008 89° East 170 196 2,100 -900 Descending Miami Center
08:57PM 26.0742 -80.2569 95° East 133 153 1,400 -660 Descending Miami Center
08:58PM 26.0753 -80.2153 88° East 131 151 900 -540 Descending Miami Center
09:00PM 26.0726 -80.1527 180° South  Level Estimated
09:07PM 26.0667 -80.1500 180° South  Level FlightAware Approximate
09:08PM 26.0726 -80.1527 180° South  Level Estimated